Pagrindinis puslapis
METAR-TAF:

METAR-TAF

Oro uostai :

Makasas, Ekvadoras

platuma: 02-17-57-S, ilguma: 078-07-15-W, Aukštis: 1052 m

Dabartinis oras

Ataskaita buvo paskelbta 2 valandos ir 4 minutes, ne 23:00 UTC
Vėjas 3 kt iš Šiaurės Rytų
Temperatūra 22°C
Drėgmė 94%
Slėgis 1012 hPa
Matomumas 10 km arba daugiau
Išsisklaidę debesys ne aukštis 3000 ft
Išsisklaidę debesys ne aukštis 22000 ft
Liūtis kaimynystėje

METAR: SEMC 222300Z 05003KT 9999 VCSH SCT030 SCT220 22/21 Q1012 RMK A2991

Laikas: 20:04 (01:04 UTC)


TAF: trūkstamas

Orai ataskaitas ir orų prognozės (METAR, TAF).

turimą stotys yra geltonos ir raudonos taškus žemėlapyje.

Perkelti pele per norėdami pamatyti stoties vardą.

Tada spustelėkite, norėdami matyti oro stebėjimo ir prognozės.

Norėdami pakeisti žemėlapį: spustelėkite ant žalios mygtukų su juodo kryžiaus žemyn,; žalią mygtuką su brūkšneliu, jei norite nutolinti; arba žalių rodyklių gretimoms žemėlapius.


METAR-TAF: